Time;durP1;ratioP1;P1;durP2;ratioP2;P2;SDS_P1;SDS_P2;PMS_P1;PMS_P2;Temp;Humidity;BMP_temperature;BMP_pressure;BME280_temperature;BME280_humidity;BME280_pressure;Samples;Min_cycle;Max_cycle;Signal;HPM_P1;HPM_P2
2022/01/19 00:00:42;;;;;;;286.40;99.13;;;;;;;;;;5031448;28;20057;-87
2022/01/19 00:03:08;;;;;;;271.27;97.30;;;;;;;;;;5008791;28;20045;-86
2022/01/19 00:05:34;;;;;;;251.48;90.38;;;;;;;;;;4992371;28;20030;-86
2022/01/19 00:08:01;;;;;;;273.60;94.97;;;;;;;;;;5008471;28;20026;-86
2022/01/19 00:10:28;;;;;;;247.45;91.70;;;;;;;;;;5008662;28;20018;-87
2022/01/19 00:12:55;;;;;;;221.93;84.05;;;;;;;;;;4993418;28;20068;-87
2022/01/19 00:15:22;;;;;;;232.02;90.15;;;;;;;;;;5001698;28;20358;-87
2022/01/19 00:17:48;;;;;;;223.65;87.60;;;;;;;;;;5001318;28;20101;-86
2022/01/19 00:20:15;;;;;;;236.38;89.03;;;;;;;;;;5008218;28;20121;-87
2022/01/19 00:22:41;;;;;;;235.38;87.70;;;;;;;;;;5008550;28;20030;-87
2022/01/19 00:25:08;;;;;;;228.85;83.25;;;;;;;;;;5008446;28;20021;-85
2022/01/19 00:27:34;;;;;;;262.23;92.50;;;;;;;;;;5008557;28;20124;-87
2022/01/19 00:30:01;;;;;;;230.70;83.90;;;;;;;;;;4992768;28;20030;-87
2022/01/19 00:32:29;;;;;;;229.50;85.38;;;;;;;;;;5007925;28;20042;-86
2022/01/19 00:34:55;;;;;;;222.75;84.03;;;;;;;;;;4996762;28;20026;-86
2022/01/19 00:37:22;;;;;;;223.85;84.45;;;;;;;;;;5032958;28;20041;-86
2022/01/19 00:39:48;;;;;;;223.95;86.15;;;;;;;;;;5008076;28;20023;-86
2022/01/19 00:42:14;;;;;;;222.93;83.25;;;;;;;;;;5007740;28;20022;-86
2022/01/19 00:44:41;;;;;;;217.07;84.78;;;;;;;;;;4988507;28;20033;-86
2022/01/19 00:47:07;;;;;;;218.55;81.72;;;;;;;;;;4991686;28;20022;-86
2022/01/19 00:49:33;;;;;;;227.75;86.68;;;;;;;;;;4993215;28;20022;-86
2022/01/19 00:52:00;;;;;;;215.73;84.55;;;;;;;;;;5008047;28;20030;-85
2022/01/19 00:54:26;;;;;;;228.98;86.28;;;;;;;;;;5005952;28;20027;-85
2022/01/19 00:56:52;;;;;;;229.57;82.30;;;;;;;;;;5007746;28;20035;-85
2022/01/19 00:59:19;;;;;;;239.60;85.78;;;;;;;;;;5007132;28;20026;-86
2022/01/19 01:01:45;;;;;;;239.23;88.97;;;;;;;;;;5000876;28;20030;-89
2022/01/19 01:04:12;;;;;;;259.73;92.25;;;;;;;;;;5006829;28;20029;-86
2022/01/19 01:06:38;;;;;;;243.27;91.53;;;;;;;;;;5005839;28;20026;-86
2022/01/19 01:09:04;;;;;;;235.27;85.03;;;;;;;;;;5006689;28;20026;-85
2022/01/19 01:11:35;;;;;;;262.75;95.43;;;;;;;;;;4988553;28;20172;-85
2022/01/19 01:16:33;;;;;;;334.00;109.25;;;;;;;;;;4989570;28;20512;-86
2022/01/19 01:19:00;;;;;;;410.80;119.57;;;;;;;;;;5005865;28;20054;-86
2022/01/19 01:21:26;;;;;;;419.85;130.32;;;;;;;;;;5013759;28;20064;-85
2022/01/19 01:23:53;;;;;;;379.55;114.07;;;;;;;;;;5007002;28;20046;-86
2022/01/19 01:26:19;;;;;;;414.33;125.80;;;;;;;;;;4991882;28;20034;-86
2022/01/19 01:28:46;;;;;;;418.95;121.75;;;;;;;;;;4991765;28;20138;-85
2022/01/19 01:31:12;;;;;;;427.95;121.78;;;;;;;;;;5001054;28;20014;-85
2022/01/19 01:33:40;;;;;;;383.65;117.22;;;;;;;;;;5007112;28;20087;-85
2022/01/19 01:36:07;;;;;;;449.05;123.95;;;;;;;;;;5006570;28;20129;-86
2022/01/19 01:38:34;;;;;;;441.05;123.78;;;;;;;;;;4997405;28;20118;-85
2022/01/19 01:41:00;;;;;;;406.60;119.38;;;;;;;;;;4992043;28;20023;-86
2022/01/19 01:43:27;;;;;;;486.88;134.90;;;;;;;;;;5014978;28;20577;-86
2022/01/19 01:46:01;;;;;;;525.88;140.63;;;;;;;;;;5007023;28;20072;-85
2022/01/19 01:48:27;;;;;;;465.38;123.88;;;;;;;;;;5006959;28;20027;-85
2022/01/19 01:53:39;;;;;;;504.45;128.25;;;;;;;;;;4990209;28;20034;-87
2022/01/19 01:56:08;;;;;;;645.42;144.60;;;;;;;;;;5006471;28;20039;-85
2022/01/19 01:58:36;;;;;;;536.90;131.32;;;;;;;;;;5007042;28;20028;-84
2022/01/19 02:01:02;;;;;;;585.88;144.38;;;;;;;;;;5006631;28;20023;-85
2022/01/19 02:03:29;;;;;;;523.75;128.63;;;;;;;;;;5006442;28;20101;-85
2022/01/19 02:08:34;;;;;;;631.63;146.27;;;;;;;;;;4991333;28;20031;-84
2022/01/19 02:11:30;;;;;;;380.02;110.72;;;;;;;;;;4993644;28;20021;-85
2022/01/19 02:22:06;;;;;;;459.27;110.25;;;;;;;;;;4983520;28;20446;-85
2022/01/19 02:24:43;;;;;;;357.80;106.32;;;;;;;;;;5019732;28;20026;-85
2022/01/19 02:40:47;;;;;;;413.13;106.50;;;;;;;;;;4979168;28;20172;-84
2022/01/19 02:43:21;;;;;;;568.58;121.10;;;;;;;;;;5008706;28;20041;-86
2022/01/19 02:51:18;;;;;;;464.42;114.20;;;;;;;;;;4982351;28;20065;-86
2022/01/19 02:53:44;;;;;;;464.67;109.82;;;;;;;;;;5005094;28;20340;-86
2022/01/19 02:56:17;;;;;;;615.88;127.72;;;;;;;;;;5006312;28;20058;-86
2022/01/19 02:58:49;;;;;;;489.65;111.68;;;;;;;;;;4990439;28;20365;-86
2022/01/19 03:09:28;;;;;;;437.52;103.93;;;;;;;;;;4980793;28;20080;-86
2022/01/19 03:11:55;;;;;;;423.60;103.53;;;;;;;;;;5005535;28;20027;-86
2022/01/19 03:14:22;;;;;;;562.03;124.60;;;;;;;;;;4989038;28;20031;-88
2022/01/19 03:16:48;;;;;;;318.45;92.88;;;;;;;;;;5005142;28;20038;-86
2022/01/19 03:19:16;;;;;;;401.90;101.97;;;;;;;;;;5005950;28;20113;-85
2022/01/19 03:21:42;;;;;;;309.67;91.68;;;;;;;;;;5004435;28;20334;-86
2022/01/19 03:24:11;;;;;;;423.35;104.55;;;;;;;;;;4987576;28;20096;-86
2022/01/19 03:26:38;;;;;;;411.40;103.90;;;;;;;;;;5005956;28;20465;-86
2022/01/19 03:29:05;;;;;;;287.38;87.18;;;;;;;;;;5007049;28;20058;-86
2022/01/19 03:31:31;;;;;;;459.02;107.35;;;;;;;;;;5001011;28;20066;-85
2022/01/19 03:33:57;;;;;;;397.67;102.45;;;;;;;;;;5006783;28;20049;-86
2022/01/19 03:36:23;;;;;;;321.88;93.10;;;;;;;;;;5008516;28;20370;-86
2022/01/19 03:38:50;;;;;;;453.40;113.80;;;;;;;;;;4993193;28;20030;-86
2022/01/19 03:41:16;;;;;;;471.27;120.38;;;;;;;;;;4993792;28;20026;-86
2022/01/19 03:43:43;;;;;;;405.95;106.07;;;;;;;;;;5054621;28;20161;-86
2022/01/19 03:46:14;;;;;;;395.95;102.88;;;;;;;;;;5025654;28;20031;-86
2022/01/19 03:48:52;;;;;;;310.40;83.75;;;;;;;;;;5004482;28;20469;-86
2022/01/19 03:51:18;;;;;;;336.23;82.60;;;;;;;;;;5013121;28;20026;-86
2022/01/19 03:53:45;;;;;;;303.05;79.32;;;;;;;;;;4992531;28;20027;-86
2022/01/19 03:56:11;;;;;;;244.60;71.10;;;;;;;;;;5008485;28;20066;-86
2022/01/19 03:58:37;;;;;;;335.48;81.03;;;;;;;;;;4991491;28;20374;-84
2022/01/19 04:01:05;;;;;;;208.77;65.38;;;;;;;;;;5002975;28;20023;-86
2022/01/19 04:04:03;;;;;;;264.10;78.32;;;;;;;;;;5008000;28;20030;-85
2022/01/19 04:06:28;;;;;;;621.45;130.10;;;;;;;;;;4984017;28;20542;-85
2022/01/19 04:08:55;;;;;;;287.45;84.70;;;;;;;;;;5003716;28;20039;-86
2022/01/19 04:11:23;;;;;;;440.70;112.57;;;;;;;;;;4989302;28;20094;-84
2022/01/19 04:16:28;;;;;;;315.50;88.68;;;;;;;;;;4986265;28;20057;-85
2022/01/19 04:19:05;;;;;;;386.73;102.97;;;;;;;;;;5007433;28;20037;-85
2022/01/19 04:21:32;;;;;;;293.63;83.97;;;;;;;;;;5008183;28;20029;-85
2022/01/19 04:23:58;;;;;;;367.48;97.40;;;;;;;;;;5003001;28;20508;-85
2022/01/19 04:26:25;;;;;;;315.60;92.97;;;;;;;;;;4983380;28;20102;-86
2022/01/19 04:28:51;;;;;;;277.55;88.38;;;;;;;;;;4996624;28;20031;-86
2022/01/19 04:31:17;;;;;;;308.10;91.85;;;;;;;;;;4988493;28;20022;-86
2022/01/19 04:33:44;;;;;;;361.58;98.13;;;;;;;;;;4991413;28;20026;-86
2022/01/19 05:06:06;;;;;;;252.82;78.78;;;;;;;;;;4992021;28;20061;-86
2022/01/19 05:08:46;;;;;;;250.70;79.18;;;;;;;;;;5001534;28;20354;-84
2022/01/19 05:13:57;;;;;;;202.57;68.22;;;;;;;;;;4992337;28;20113;-87
2022/01/19 05:16:24;;;;;;;233.25;70.38;;;;;;;;;;5003778;28;20066;-86
2022/01/19 05:18:50;;;;;;;215.73;73.05;;;;;;;;;;5004339;28;20041;-86
2022/01/19 05:21:17;;;;;;;240.18;76.03;;;;;;;;;;5010542;28;20530;-86
2022/01/19 05:23:43;;;;;;;256.90;82.32;;;;;;;;;;5027393;28;20025;-86
2022/01/19 05:26:10;;;;;;;347.08;109.03;;;;;;;;;;5010682;28;20026;-86
2022/01/19 05:28:37;;;;;;;301.27;102.13;;;;;;;;;;5009273;28;20042;-87
2022/01/19 05:31:04;;;;;;;295.20;98.63;;;;;;;;;;5007437;28;20170;-87
2022/01/19 05:33:30;;;;;;;288.98;98.07;;;;;;;;;;4991358;28;20026;-84
2022/01/19 05:35:56;;;;;;;298.98;98.95;;;;;;;;;;4992179;28;20030;-85
2022/01/19 05:38:23;;;;;;;296.90;89.47;;;;;;;;;;5007107;28;20018;-84
2022/01/19 05:40:49;;;;;;;262.55;81.80;;;;;;;;;;4991947;28;20022;-84
2022/01/19 05:43:16;;;;;;;247.48;76.57;;;;;;;;;;5007354;28;20022;-84
2022/01/19 05:45:42;;;;;;;190.38;57.00;;;;;;;;;;5007146;28;20057;-84
2022/01/19 05:48:08;;;;;;;183.95;60.83;;;;;;;;;;5006914;28;20113;-84
2022/01/19 05:50:35;;;;;;;153.60;52.83;;;;;;;;;;4991035;28;20491;-84
2022/01/19 05:53:02;;;;;;;117.57;40.35;;;;;;;;;;4990888;28;20022;-84
2022/01/19 05:55:28;;;;;;;122.53;35.40;;;;;;;;;;4993631;28;20039;-85
2022/01/19 05:57:54;;;;;;;85.45;30.13;;;;;;;;;;5009870;28;20030;-85
2022/01/19 06:00:21;;;;;;;114.40;34.90;;;;;;;;;;5007535;28;20434;-84
2022/01/19 06:02:48;;;;;;;117.72;38.83;;;;;;;;;;5006794;28;20020;-84
2022/01/19 06:05:14;;;;;;;138.73;33.15;;;;;;;;;;5007172;28;20029;-84
2022/01/19 06:07:45;;;;;;;90.38;32.13;;;;;;;;;;5008386;28;20038;-85
2022/01/19 06:10:42;;;;;;;86.78;32.15;;;;;;;;;;5012077;28;20484;-86
2022/01/19 06:12:59;;;;;;;90.10;32.97;;;;;;;;;;4991482;28;20388;-85
2022/01/19 06:15:25;;;;;;;79.18;29.60;;;;;;;;;;5006408;28;20026;-86
2022/01/19 06:17:52;;;;;;;83.65;31.40;;;;;;;;;;5003489;28;20035;-85
2022/01/19 06:20:18;;;;;;;102.63;34.00;;;;;;;;;;4971024;28;20104;-85
2022/01/19 06:22:44;;;;;;;81.18;30.70;;;;;;;;;;4983257;28;20469;-85
2022/01/19 06:25:11;;;;;;;69.63;27.10;;;;;;;;;;4989985;28;20025;-85
2022/01/19 06:27:37;;;;;;;142.43;36.70;;;;;;;;;;4986484;28;20418;-85
2022/01/19 06:30:04;;;;;;;74.50;27.52;;;;;;;;;;4990199;28;20026;-85
2022/01/19 06:32:30;;;;;;;70.78;30.10;;;;;;;;;;4990058;28;20115;-85
2022/01/19 06:34:56;;;;;;;117.25;32.88;;;;;;;;;;5006718;28;20026;-85
2022/01/19 06:37:22;;;;;;;78.05;30.92;;;;;;;;;;5002946;28;20039;-85
2022/01/19 06:39:49;;;;;;;106.78;31.52;;;;;;;;;;4977557;28;20022;-85
2022/01/19 06:42:15;;;;;;;106.30;32.67;;;;;;;;;;4986728;28;20030;-85
2022/01/19 06:44:41;;;;;;;120.28;32.75;;;;;;;;;;4991317;28;20054;-85
2022/01/19 06:47:08;;;;;;;84.53;31.77;;;;;;;;;;5006599;28;20058;-85
2022/01/19 06:49:34;;;;;;;95.70;30.05;;;;;;;;;;4986930;28;20046;-85
2022/01/19 06:52:01;;;;;;;85.90;28.52;;;;;;;;;;4976935;28;20029;-85
2022/01/19 06:54:28;;;;;;;74.88;26.10;;;;;;;;;;5014474;28;20019;-85
2022/01/19 06:56:55;;;;;;;129.30;29.02;;;;;;;;;;4990724;28;20045;-84
2022/01/19 06:59:21;;;;;;;69.20;23.45;;;;;;;;;;5006282;28;20026;-84
2022/01/19 07:01:47;;;;;;;85.65;24.55;;;;;;;;;;4988925;28;20019;-84
2022/01/19 07:04:16;;;;;;;88.97;26.95;;;;;;;;;;5005924;28;20037;-86
2022/01/19 07:06:44;;;;;;;76.63;24.33;;;;;;;;;;5002656;28;20500;-86
2022/01/19 07:09:10;;;;;;;76.38;26.77;;;;;;;;;;4644718;28;10000271;-87
2022/01/19 07:11:36;;;;;;;80.65;30.45;;;;;;;;;;4995233;28;20038;-85
2022/01/19 07:14:04;;;;;;;79.60;32.80;;;;;;;;;;5009589;28;20045;-88
2022/01/19 07:16:30;;;;;;;82.70;32.38;;;;;;;;;;5002755;28;20036;-87
2022/01/19 07:18:56;;;;;;;74.13;31.02;;;;;;;;;;5002218;28;20083;-87
2022/01/19 07:21:23;;;;;;;128.32;39.20;;;;;;;;;;4992019;28;20076;-88
2022/01/19 07:23:49;;;;;;;78.10;33.70;;;;;;;;;;4990842;28;20044;-87
2022/01/19 07:26:21;;;;;;;101.30;36.15;;;;;;;;;;5002775;28;20450;-86
2022/01/19 07:28:47;;;;;;;87.47;34.83;;;;;;;;;;5008233;28;20035;-87
2022/01/19 07:31:14;;;;;;;98.18;37.88;;;;;;;;;;5028775;28;20030;-87
2022/01/19 07:33:40;;;;;;;94.35;38.20;;;;;;;;;;4993567;28;20052;-87
2022/01/19 07:36:06;;;;;;;99.13;40.38;;;;;;;;;;5008402;28;20043;-87
2022/01/19 07:38:33;;;;;;;108.88;41.03;;;;;;;;;;4985501;28;20035;-87
2022/01/19 07:40:59;;;;;;;90.80;38.97;;;;;;;;;;5008720;28;20428;-86
2022/01/19 07:43:25;;;;;;;101.18;40.30;;;;;;;;;;4988392;28;20023;-88
2022/01/19 07:45:52;;;;;;;103.15;42.70;;;;;;;;;;4985961;28;20472;-87
2022/01/19 07:48:18;;;;;;;123.35;45.47;;;;;;;;;;5012517;28;20026;-87
2022/01/19 07:50:47;;;;;;;121.05;45.72;;;;;;;;;;4994106;28;20432;-89
2022/01/19 07:53:13;;;;;;;100.55;43.38;;;;;;;;;;4998575;28;20399;-87
2022/01/19 07:55:39;;;;;;;109.13;45.22;;;;;;;;;;5005839;28;20027;-87
2022/01/19 07:58:07;;;;;;;99.32;41.50;;;;;;;;;;5008275;28;20022;-86
2022/01/19 08:00:35;;;;;;;89.32;38.22;;;;;;;;;;5015061;28;20084;-87
2022/01/19 08:03:01;;;;;;;85.45;35.53;;;;;;;;;;4992152;28;20036;-87
2022/01/19 08:05:27;;;;;;;93.22;37.90;;;;;;;;;;5001573;28;20022;-87
2022/01/19 08:07:56;;;;;;;78.75;35.10;;;;;;;;;;5005273;28;20030;-86
2022/01/19 08:10:22;;;;;;;73.50;32.67;;;;;;;;;;4992000;28;20045;-86
2022/01/19 08:12:52;;;;;;;59.72;27.20;;;;;;;;;;5025671;28;20458;-87
2022/01/19 08:15:19;;;;;;;50.28;22.90;;;;;;;;;;5004574;28;20022;-87
2022/01/19 08:17:45;;;;;;;46.83;20.48;;;;;;;;;;4995281;28;20125;-89
2022/01/19 08:20:12;;;;;;;52.25;23.10;;;;;;;;;;5022868;28;20081;-86
2022/01/19 08:22:38;;;;;;;52.60;22.90;;;;;;;;;;5015972;28;20030;-87
2022/01/19 08:25:05;;;;;;;57.55;26.83;;;;;;;;;;4999983;28;20023;-86
2022/01/19 08:27:31;;;;;;;69.47;28.85;;;;;;;;;;4991053;28;20038;-86
2022/01/19 08:29:57;;;;;;;66.78;29.85;;;;;;;;;;5003307;28;20049;-87
2022/01/19 08:32:24;;;;;;;53.75;24.80;;;;;;;;;;4992639;28;20046;-87
2022/01/19 08:34:51;;;;;;;54.80;26.42;;;;;;;;;;4991783;28;20022;-87
2022/01/19 08:37:17;;;;;;;57.45;27.45;;;;;;;;;;4991782;28;20047;-87
2022/01/19 08:39:43;;;;;;;48.28;25.35;;;;;;;;;;5040663;28;20041;-87
2022/01/19 08:42:10;;;;;;;55.70;27.13;;;;;;;;;;4990320;28;20050;-87
2022/01/19 08:44:37;;;;;;;48.83;25.73;;;;;;;;;;4986503;28;20053;-87
2022/01/19 08:47:04;;;;;;;50.75;24.83;;;;;;;;;;4990149;28;20034;-87
2022/01/19 08:49:30;;;;;;;58.45;25.67;;;;;;;;;;4976892;28;20037;-86
2022/01/19 08:51:58;;;;;;;51.05;25.02;;;;;;;;;;4991672;28;20072;-87
2022/01/19 08:54:25;;;;;;;54.53;25.85;;;;;;;;;;5003738;28;20049;-87
2022/01/19 08:56:52;;;;;;;65.90;29.55;;;;;;;;;;5006854;28;20038;-87
2022/01/19 08:59:18;;;;;;;61.03;28.30;;;;;;;;;;5006996;28;20109;-86
2022/01/19 09:01:45;;;;;;;67.20;30.95;;;;;;;;;;5007102;28;20031;-86
2022/01/19 09:04:11;;;;;;;72.68;34.03;;;;;;;;;;5007423;28;20064;-86
2022/01/19 09:06:37;;;;;;;75.40;35.70;;;;;;;;;;4987796;28;20039;-86
2022/01/19 09:09:04;;;;;;;75.40;34.03;;;;;;;;;;5004396;28;20109;-86
2022/01/19 09:11:30;;;;;;;72.50;35.35;;;;;;;;;;5006908;28;20018;-86
2022/01/19 09:13:57;;;;;;;66.13;33.75;;;;;;;;;;5006747;28;20023;-86
2022/01/19 09:16:23;;;;;;;72.63;34.78;;;;;;;;;;5007265;28;20057;-86
2022/01/19 09:18:50;;;;;;;74.65;35.15;;;;;;;;;;5007379;28;20585;-86
2022/01/19 09:21:16;;;;;;;84.40;39.60;;;;;;;;;;5067214;28;20107;-86
2022/01/19 09:23:43;;;;;;;77.05;35.83;;;;;;;;;;5006885;28;20033;-85
2022/01/19 09:26:10;;;;;;;85.90;38.60;;;;;;;;;;4989689;28;20031;-85
2022/01/19 09:28:36;;;;;;;77.00;37.30;;;;;;;;;;5009605;28;20026;-86
2022/01/19 09:31:10;;;;;;;84.13;38.58;;;;;;;;;;5006727;28;20018;-87
2022/01/19 09:33:36;;;;;;;81.10;37.33;;;;;;;;;;5007189;28;20487;-86
2022/01/19 09:38:33;;;;;;;96.78;38.97;;;;;;;;;;4986339;28;20034;-86
2022/01/19 09:41:06;;;;;;;99.60;41.67;;;;;;;;;;4987915;28;20025;-86
2022/01/19 09:43:35;;;;;;;92.63;39.80;;;;;;;;;;5004943;28;20523;-85
2022/01/19 09:46:02;;;;;;;97.35;39.95;;;;;;;;;;5005876;28;20056;-87
2022/01/19 09:48:28;;;;;;;87.10;37.05;;;;;;;;;;4991051;28;20084;-87
2022/01/19 09:50:56;;;;;;;82.53;35.55;;;;;;;;;;5006367;28;20022;-87
2022/01/19 09:53:23;;;;;;;71.57;33.33;;;;;;;;;;5003116;28;20026;-86
2022/01/19 09:55:50;;;;;;;78.57;38.20;;;;;;;;;;4991247;28;20029;-88
2022/01/19 09:58:21;;;;;;;102.97;42.67;;;;;;;;;;5001540;28;20034;-88
2022/01/19 10:00:48;;;;;;;80.13;37.90;;;;;;;;;;5007061;28;20022;-86
2022/01/19 10:03:14;;;;;;;95.20;41.88;;;;;;;;;;5005285;28;20030;-86
2022/01/19 10:05:54;;;;;;;88.95;40.45;;;;;;;;;;5019315;28;20029;-87
2022/01/19 10:08:47;;;;;;;103.75;44.22;;;;;;;;;;4991627;28;20529;-87
2022/01/19 10:11:16;;;;;;;118.00;47.70;;;;;;;;;;4990451;28;20042;-87
2022/01/19 10:17:04;;;;;;;116.68;47.95;;;;;;;;;;4990302;28;20049;-87
2022/01/19 10:19:35;;;;;;;101.95;45.28;;;;;;;;;;5005661;28;20034;-86
2022/01/19 10:22:04;;;;;;;85.80;42.85;;;;;;;;;;5005223;28;20030;-86
2022/01/19 10:24:38;;;;;;;101.15;43.25;;;;;;;;;;4989739;28;20029;-85
2022/01/19 10:27:23;;;;;;;77.28;36.88;;;;;;;;;;4990528;28;20015;-86
2022/01/19 10:29:51;;;;;;;79.43;36.53;;;;;;;;;;5000249;28;20019;-86
2022/01/19 10:32:20;;;;;;;81.18;38.30;;;;;;;;;;5005692;28;20055;-85
2022/01/19 10:34:46;;;;;;;93.22;42.38;;;;;;;;;;5005609;28;20022;-85
2022/01/19 10:37:14;;;;;;;88.65;39.95;;;;;;;;;;4657850;28;9999956;-85
2022/01/19 10:39:48;;;;;;;81.72;38.53;;;;;;;;;;4997394;28;20492;-82
2022/01/19 10:42:16;;;;;;;82.43;38.35;;;;;;;;;;5003862;28;20038;-84
2022/01/19 10:44:50;;;;;;;68.75;33.60;;;;;;;;;;5002987;28;20046;-83
2022/01/19 10:47:17;;;;;;;71.15;31.70;;;;;;;;;;4990902;28;20084;-84
2022/01/19 10:49:50;;;;;;;57.22;26.67;;;;;;;;;;4992079;28;20034;-85
2022/01/19 10:52:34;;;;;;;50.50;24.10;;;;;;;;;;4987728;28;20083;-85
2022/01/19 10:55:01;;;;;;;48.47;23.88;;;;;;;;;;4989340;28;20026;-84
2022/01/19 10:57:29;;;;;;;56.45;26.63;;;;;;;;;;4992614;28;20070;-85
2022/01/19 11:00:14;;;;;;;76.85;36.03;;;;;;;;;;5007939;28;20062;-85
2022/01/19 11:02:41;;;;;;;70.95;33.88;;;;;;;;;;5013175;28;20072;-84
2022/01/19 11:05:07;;;;;;;73.30;34.40;;;;;;;;;;4998840;28;20026;-84
2022/01/19 11:07:34;;;;;;;83.45;37.83;;;;;;;;;;4991981;28;20026;-85
2022/01/19 11:10:09;;;;;;;70.90;32.05;;;;;;;;;;4991561;28;20039;-85
2022/01/19 11:12:44;;;;;;;47.30;21.75;;;;;;;;;;5008202;28;20046;-86
2022/01/19 11:15:11;;;;;;;42.67;21.00;;;;;;;;;;5008637;28;20034;-86
2022/01/19 11:17:38;;;;;;;37.25;18.52;;;;;;;;;;5009139;28;20043;-85
2022/01/19 11:20:09;;;;;;;44.55;19.98;;;;;;;;;;4993169;28;20411;-86
2022/01/19 11:22:51;;;;;;;41.15;19.13;;;;;;;;;;4989775;28;20130;-86
2022/01/19 11:25:27;;;;;;;37.05;17.73;;;;;;;;;;5003254;28;20038;-85
2022/01/19 11:27:54;;;;;;;46.97;20.67;;;;;;;;;;5008935;28;20026;-86
2022/01/19 11:30:31;;;;;;;40.00;18.63;;;;;;;;;;5009070;28;20030;-87
2022/01/19 11:33:16;;;;;;;38.15;18.90;;;;;;;;;;4992649;28;20054;-87
2022/01/19 11:35:47;;;;;;;49.28;21.92;;;;;;;;;;5007004;28;20031;-89
2022/01/19 11:38:34;;;;;;;50.88;22.85;;;;;;;;;;5015084;28;20026;-89
2022/01/19 11:41:02;;;;;;;46.30;22.48;;;;;;;;;;4993599;28;20018;-89
2022/01/19 11:43:30;;;;;;;58.30;28.02;;;;;;;;;;5018339;28;20041;-88
2022/01/19 11:45:57;;;;;;;60.00;29.65;;;;;;;;;;5025641;28;20033;-89
2022/01/19 11:48:25;;;;;;;74.35;29.30;;;;;;;;;;4992602;28;20026;-89
2022/01/19 11:50:52;;;;;;;52.47;25.08;;;;;;;;;;4993514;28;20079;-87
2022/01/19 11:53:19;;;;;;;43.85;20.33;;;;;;;;;;4993857;28;20129;-88
2022/01/19 11:56:04;;;;;;;42.00;21.50;;;;;;;;;;5107693;28;20029;-91
2022/01/19 11:58:30;;;;;;;47.90;23.20;;;;;;;;;;5065886;28;20025;-87
2022/01/19 12:00:57;;;;;;;48.20;21.88;;;;;;;;;;4992063;28;20061;-88
2022/01/19 12:03:32;;;;;;;37.75;18.85;;;;;;;;;;4992892;28;20030;-89
2022/01/19 12:05:59;;;;;;;36.30;18.83;;;;;;;;;;5007489;28;20062;-89
2022/01/19 12:08:33;;;;;;;34.78;17.50;;;;;;;;;;4992347;28;20023;-89
2022/01/19 12:11:21;;;;;;;35.28;18.52;;;;;;;;;;4992692;28;20018;-88
2022/01/19 12:14:07;;;;;;;40.63;20.23;;;;;;;;;;4991018;28;20117;-89
2022/01/19 12:19:06;;;;;;;45.20;21.25;;;;;;;;;;4993648;28;20039;-88
2022/01/19 12:21:33;;;;;;;46.92;23.20;;;;;;;;;;4992068;28;20026;-88
2022/01/19 12:24:25;;;;;;;64.93;31.58;;;;;;;;;;4992037;28;20038;-88
2022/01/19 12:26:55;;;;;;;86.95;42.10;;;;;;;;;;5008450;28;20069;-88
2022/01/19 12:29:34;;;;;;;110.22;55.03;;;;;;;;;;5003121;28;20030;-88
2022/01/19 12:32:04;;;;;;;120.43;57.65;;;;;;;;;;4973753;28;20126;-88
2022/01/19 12:34:41;;;;;;;143.05;66.03;;;;;;;;;;5013046;28;20041;-89
2022/01/19 12:37:08;;;;;;;120.22;60.10;;;;;;;;;;5007659;28;20046;-89
2022/01/19 12:39:37;;;;;;;137.50;60.30;;;;;;;;;;4988705;28;20467;-89
2022/01/19 12:42:13;;;;;;;105.28;52.65;;;;;;;;;;4988899;28;20080;-90
2022/01/19 12:44:41;;;;;;;94.97;46.25;;;;;;;;;;4990305;28;20034;-88
2022/01/19 12:47:28;;;;;;;82.13;38.00;;;;;;;;;;4660909;28;9999796;-89
2022/01/19 12:49:55;;;;;;;71.60;35.38;;;;;;;;;;4980496;28;20109;-88
2022/01/19 12:52:23;;;;;;;65.28;31.52;;;;;;;;;;4992085;28;20038;-88
2022/01/19 12:54:50;;;;;;;60.25;31.40;;;;;;;;;;4991917;28;20099;-88
2022/01/19 12:57:17;;;;;;;76.03;35.50;;;;;;;;;;5007723;28;20484;-88
2022/01/19 12:59:44;;;;;;;66.18;33.50;;;;;;;;;;5007805;28;20030;-87
2022/01/19 13:02:14;;;;;;;51.97;25.73;;;;;;;;;;5007301;28;20026;-88
2022/01/19 13:04:41;;;;;;;36.55;19.58;;;;;;;;;;5007304;28;20175;-88
2022/01/19 13:07:20;;;;;;;28.83;15.75;;;;;;;;;;5011803;28;20033;-88
2022/01/19 13:10:09;;;;;;;21.65;12.23;;;;;;;;;;5009393;28;20034;-92
2022/01/19 13:12:43;;;;;;;31.02;15.00;;;;;;;;;;4660494;28;9999626;-88
2022/01/19 13:15:09;;;;;;;29.80;16.25;;;;;;;;;;4985766;28;20029;-88
2022/01/19 13:17:43;;;;;;;38.58;19.08;;;;;;;;;;4994515;28;20043;-89
2022/01/19 13:20:20;;;;;;;37.55;18.67;;;;;;;;;;5004002;28;20025;-89
2022/01/19 13:22:53;;;;;;;40.90;20.65;;;;;;;;;;5007473;28;20117;-89
2022/01/19 13:25:26;;;;;;;41.97;20.35;;;;;;;;;;5004549;28;20361;-90
2022/01/19 13:27:56;;;;;;;22.05;10.93;;;;;;;;;;5002226;28;20026;-89
2022/01/19 13:30:27;;;;;;;26.05;12.02;;;;;;;;;;4999982;28;20046;-90
2022/01/19 13:32:54;;;;;;;35.05;14.63;;;;;;;;;;5013565;28;20064;-89
2022/01/19 13:35:21;;;;;;;46.03;19.67;;;;;;;;;;4988739;28;20023;-90
2022/01/19 13:37:54;;;;;;;35.35;15.48;;;;;;;;;;4997318;28;20107;-89
2022/01/19 13:40:31;;;;;;;32.55;14.57;;;;;;;;;;4988665;28;20046;-88
2022/01/19 13:43:00;;;;;;;28.45;15.70;;;;;;;;;;4986023;28;20171;-89
2022/01/19 13:50:40;;;;;;;71.88;31.83;;;;;;;;;;4984643;28;20076;-89
2022/01/19 13:53:06;;;;;;;73.28;35.17;;;;;;;;;;5003170;28;20028;-85
2022/01/19 13:55:33;;;;;;;63.00;31.55;;;;;;;;;;4989545;28;20018;-86
2022/01/19 13:58:10;;;;;;;54.05;28.73;;;;;;;;;;4995582;28;20039;-86
2022/01/19 14:00:49;;;;;;;56.90;27.90;;;;;;;;;;5001174;28;20415;-87
2022/01/19 14:03:16;;;;;;;78.35;35.70;;;;;;;;;;4989922;28;20106;-87
2022/01/19 14:05:44;;;;;;;76.57;37.42;;;;;;;;;;5006812;28;20022;-87
2022/01/19 14:08:10;;;;;;;67.22;32.47;;;;;;;;;;5002642;28;20100;-88
2022/01/19 14:10:44;;;;;;;61.28;29.80;;;;;;;;;;5018633;28;20019;-87
2022/01/19 14:13:30;;;;;;;48.53;25.20;;;;;;;;;;5006211;28;20465;-87
2022/01/19 14:15:58;;;;;;;52.67;25.98;;;;;;;;;;4991895;28;20105;-87
2022/01/19 14:18:25;;;;;;;70.05;34.42;;;;;;;;;;5005946;28;20037;-87
2022/01/19 14:21:10;;;;;;;76.85;35.28;;;;;;;;;;5006573;28;20027;-87
2022/01/19 14:23:37;;;;;;;88.72;42.05;;;;;;;;;;5010663;28;20119;-86
2022/01/19 14:26:11;;;;;;;82.68;39.80;;;;;;;;;;5005574;28;20044;-87
2022/01/19 14:28:38;;;;;;;68.00;36.00;;;;;;;;;;4978591;28;20022;-87
2022/01/19 14:31:12;;;;;;;51.00;26.42;;;;;;;;;;5005888;28;20081;-87
2022/01/19 14:33:49;;;;;;;34.90;16.60;;;;;;;;;;5006865;28;20019;-88
2022/01/19 14:36:23;;;;;;;29.73;15.00;;;;;;;;;;4990419;28;20159;-87
2022/01/19 14:38:55;;;;;;;35.45;17.08;;;;;;;;;;5006438;28;20063;-89
2022/01/19 14:41:27;;;;;;;51.67;24.63;;;;;;;;;;5005771;28;20172;-89
2022/01/19 14:44:01;;;;;;;47.85;23.80;;;;;;;;;;5001050;28;20013;-89
2022/01/19 14:47:14;;;;;;;45.78;22.15;;;;;;;;;;5007036;28;20035;-89
2022/01/19 14:49:41;;;;;;;40.65;20.52;;;;;;;;;;5051712;28;20107;-87
2022/01/19 14:52:07;;;;;;;41.20;21.65;;;;;;;;;;5000699;28;20042;-89
2022/01/19 14:54:34;;;;;;;38.83;20.08;;;;;;;;;;4997637;28;20052;-89
2022/01/19 14:57:00;;;;;;;40.38;20.25;;;;;;;;;;5006881;28;20062;-89
2022/01/19 14:59:26;;;;;;;33.55;18.27;;;;;;;;;;4990426;28;20444;-89
2022/01/19 15:01:56;;;;;;;35.38;18.95;;;;;;;;;;4990370;28;20388;-89
2022/01/19 15:04:23;;;;;;;40.10;21.52;;;;;;;;;;5006129;28;20052;-89
2022/01/19 15:06:49;;;;;;;44.15;20.80;;;;;;;;;;5006467;28;20477;-89
2022/01/19 15:09:16;;;;;;;40.38;20.38;;;;;;;;;;4991546;28;20370;-89
2022/01/19 15:11:44;;;;;;;47.63;23.92;;;;;;;;;;4990587;28;20023;-89
2022/01/19 15:14:10;;;;;;;50.83;26.25;;;;;;;;;;4989682;28;20029;-89
2022/01/19 15:16:37;;;;;;;57.35;27.65;;;;;;;;;;4989997;28;20137;-89
2022/01/19 15:19:04;;;;;;;47.15;24.95;;;;;;;;;;5005392;28;20026;-89
2022/01/19 15:21:31;;;;;;;51.08;22.90;;;;;;;;;;4986929;28;20050;-89
2022/01/19 15:23:59;;;;;;;39.83;21.52;;;;;;;;;;5003787;28;20087;-89
2022/01/19 15:26:32;;;;;;;48.22;24.85;;;;;;;;;;5000231;28;20027;-90
2022/01/19 15:29:01;;;;;;;43.97;23.15;;;;;;;;;;4301489;28;10000358;-89
2022/01/19 15:31:29;;;;;;;41.20;21.33;;;;;;;;;;4661559;28;10000196;-90
2022/01/19 15:33:55;;;;;;;43.88;22.63;;;;;;;;;;4989564;28;20109;-89
2022/01/19 15:36:22;;;;;;;41.75;21.58;;;;;;;;;;4992392;28;20053;-89
2022/01/19 15:38:48;;;;;;;46.42;23.88;;;;;;;;;;5008175;28;20030;-89
2022/01/19 15:41:16;;;;;;;41.67;22.10;;;;;;;;;;5007960;28;20044;-90
2022/01/19 15:43:44;;;;;;;47.35;24.30;;;;;;;;;;5008466;28;20030;-89
2022/01/19 15:46:12;;;;;;;62.10;30.63;;;;;;;;;;4993367;28;20029;-90
2022/01/19 15:48:39;;;;;;;69.78;34.55;;;;;;;;;;5021222;28;20476;-90
2022/01/19 15:51:06;;;;;;;128.60;57.35;;;;;;;;;;5008915;28;20034;-90